Washington, District of Columbia
Traffic Map
Current Weather Conditions
Washington, District of Columbia
Overcast
Overcast
45°
Feels Like: 39°
Wind Chill: 39° Ceiling: 9500
Heat Index: 45° Visibility: 10mi
Dew Point: 25° Wind: 14mph
Humidity: 46% Direction: 180° (S)
Pressure: 30.04in Gusts: 0mph
Raw Report DataKDCA 300652Z 18012KT 10SM OVC095 07/M04 A3004 RMK AO2 WSHFT 0539 RAE0557 SLP170 P0000 T00721039 $
Traffic Incident Summary
Active as of:
Severity:
Category:
InformationThere was an issue retrieving the traffic information for this location. Please try a different location or try again shortly.
Advertisements
Track Severe Weather on mobile